createdAt,value
2018-06-01T00:02:08.179Z,20.63
2018-06-01T00:04:35.179Z,23.60
2018-06-01T00:07:03.008Z,22.93
2018-06-01T00:09:29.989Z,23.43
2018-06-01T00:11:56.996Z,25.07
2018-06-01T00:14:24.004Z,21.63
2018-06-01T00:16:51.021Z,25.23
2018-06-01T00:19:18.036Z,23.03
2018-06-01T00:21:45.048Z,23.03
2018-06-01T00:24:12.054Z,22.40
2018-06-01T00:26:39.069Z,21.87
2018-06-01T00:29:06.088Z,23.60
2018-06-01T00:31:33.855Z,23.60
2018-06-01T00:34:00.890Z,22.17
2018-06-01T00:36:27.887Z,23.67
2018-06-01T00:38:54.921Z,22.40
2018-06-01T00:41:21.904Z,21.50
2018-06-01T00:43:48.916Z,22.53
2018-06-01T00:46:15.987Z,23.40
2018-06-01T00:48:42.992Z,23.37
2018-06-01T00:51:10.744Z,24.90
2018-06-01T00:53:37.787Z,25.33
2018-06-01T00:56:05.584Z,24.03
2018-06-01T00:58:32.600Z,24.33
2018-06-01T01:01:00.363Z,23.90
2018-06-01T01:03:27.356Z,22.93
2018-06-01T01:05:54.344Z,23.60
2018-06-01T01:08:22.121Z,23.77
2018-06-01T01:10:49.916Z,23.00
2018-06-01T01:13:16.924Z,22.53
2018-06-01T01:15:43.932Z,24.90
2018-06-01T01:18:10.957Z,23.90
2018-06-01T01:20:37.977Z,23.47
2018-06-01T01:23:05.000Z,23.60
2018-06-01T01:25:32.015Z,24.13
2018-06-01T01:27:59.044Z,23.20
2018-06-01T01:30:26.056Z,23.93
2018-06-01T01:32:53.058Z,23.27
2018-06-01T01:35:20.036Z,22.63
2018-06-01T01:37:47.036Z,22.70
2018-06-01T01:40:14.047Z,22.23
2018-06-01T01:42:41.811Z,22.60
2018-06-01T01:45:09.567Z,22.50
2018-06-01T01:47:37.331Z,23.23
2018-06-01T01:50:05.096Z,24.40
2018-06-01T01:52:32.830Z,23.30
2018-06-01T01:54:59.822Z,23.13
2018-06-01T01:57:27.560Z,22.07
2018-06-01T01:59:55.319Z,21.73
2018-06-01T02:02:23.100Z,23.57
2018-06-01T02:04:50.176Z,23.70
2018-06-01T02:07:17.183Z,22.27
2018-06-01T02:09:44.179Z,23.73
2018-06-01T02:12:11.184Z,23.87
2018-06-01T02:14:38.180Z,22.17
2018-06-01T02:17:05.183Z,22.67
2018-06-01T02:19:32.949Z,23.03
2018-06-01T02:22:00.708Z,22.50
2018-06-01T02:24:28.441Z,23.87
2018-06-01T02:26:55.451Z,22.10
2018-06-01T02:29:22.452Z,24.20
2018-06-01T02:31:49.447Z,23.20
2018-06-01T02:34:16.489Z,22.97
2018-06-01T02:36:43.500Z,24.27
2018-06-01T02:39:11.268Z,23.20
2018-06-01T02:41:38.241Z,23.20
2018-06-01T02:44:05.275Z,22.40
2018-06-01T02:46:32.314Z,22.20
2018-06-01T02:49:00.075Z,22.70
2018-06-01T02:51:27.821Z,23.00
2018-06-01T02:53:54.800Z,22.50
2018-06-01T02:56:21.834Z,21.97
2018-06-01T02:58:48.861Z,25.50
2018-06-01T03:01:15.924Z,24.83
2018-06-01T03:03:42.976Z,23.47
2018-06-01T03:06:10.024Z,22.63
2018-06-01T03:08:37.809Z,23.93
2018-06-01T03:11:05.552Z,22.50
2018-06-01T03:13:33.323Z,24.43
2018-06-01T03:16:00.329Z,22.40
2018-06-01T03:18:27.359Z,23.70
2018-06-01T03:20:54.383Z,22.63
2018-06-01T03:23:21.378Z,23.60
2018-06-01T03:25:48.400Z,25.00
2018-06-01T03:28:16.152Z,23.40
2018-06-01T03:30:43.353Z,24.10
2018-06-01T03:33:10.352Z,22.40
2018-06-01T03:35:37.380Z,21.60
2018-06-01T03:38:04.451Z,21.47
2018-06-01T03:40:31.470Z,23.63
2018-06-01T03:42:58.508Z,25.57
2018-06-01T03:45:25.489Z,23.97
2018-06-01T03:47:52.482Z,23.13
2018-06-01T03:50:19.468Z,23.20
2018-06-01T03:52:46.491Z,23.17
2018-06-01T03:55:14.276Z,24.07
2018-06-01T03:57:41.288Z,23.53
2018-06-01T04:00:08.302Z,24.30
2018-06-01T04:02:35.329Z,22.53
2018-06-01T04:05:02.345Z,23.00
2018-06-01T04:07:29.373Z,24.90
2018-06-01T04:09:57.140Z,22.90
2018-06-01T04:12:24.142Z,24.10
2018-06-01T04:14:51.167Z,22.30
2018-06-01T04:17:18.203Z,22.30
2018-06-01T04:19:45.958Z,21.27
2018-06-01T04:22:12.976Z,22.43
2018-06-01T04:24:39.985Z,21.60
2018-06-01T04:27:06.994Z,20.90
2018-06-01T04:29:34.744Z,22.10
2018-06-01T04:32:01.767Z,23.00
2018-06-01T04:34:28.760Z,20.70
2018-06-01T04:36:55.764Z,24.47
2018-06-01T04:39:22.791Z,20.43
2018-06-01T04:41:49.942Z,20.97
2018-06-01T04:44:17.794Z,21.20
2018-06-01T04:46:44.851Z,20.80
2018-06-01T04:49:11.869Z,20.83
2018-06-01T04:51:45.603Z,20.37
2018-06-01T04:54:12.625Z,21.77
2018-06-01T04:56:39.644Z,21.33
2018-06-01T04:59:07.400Z,20.77
2018-06-01T05:01:34.516Z,20.90
2018-06-01T05:04:01.574Z,19.70
2018-06-01T05:06:28.606Z,21.63
2018-06-01T05:08:55.633Z,20.30
2018-06-01T05:11:22.887Z,21.97
2018-06-01T05:13:50.617Z,22.40
2018-06-01T05:16:17.659Z,20.03
2018-06-01T05:18:44.644Z,21.40
2018-06-01T05:21:11.724Z,23.10
2018-06-01T05:23:38.827Z,20.37
2018-06-01T05:26:05.863Z,19.83
2018-06-01T05:28:33.642Z,21.50
2018-06-01T05:31:01.554Z,22.03
2018-06-01T05:33:29.413Z,19.10
2018-06-01T05:35:56.452Z,19.13
2018-06-01T05:38:23.448Z,22.67
2018-06-01T05:40:51.190Z,19.70
2018-06-01T05:43:18.171Z,22.20
2018-06-01T05:45:45.181Z,20.97
2018-06-01T05:48:12.176Z,20.97
2018-06-01T05:50:39.195Z,20.90
2018-06-01T05:53:06.350Z,21.70
2018-06-01T05:55:33.554Z,21.17
2018-06-01T05:58:01.348Z,21.53
2018-06-01T06:00:28.361Z,21.40
2018-06-01T06:02:55.392Z,21.37
2018-06-01T06:05:22.428Z,30.60
2018-06-01T06:07:49.464Z,31.90
2018-06-01T06:10:16.499Z,36.47
2018-06-01T06:12:44.240Z,19.00
2018-06-01T06:15:11.228Z,20.80
2018-06-01T06:17:38.233Z,24.10
2018-06-01T06:20:06.104Z,20.07
2018-06-01T06:22:33.121Z,19.17
2018-06-01T06:25:00.135Z,19.10
2018-06-01T06:27:27.140Z,20.13
2018-06-01T06:29:54.140Z,20.57
2018-06-01T06:32:21.151Z,21.17
2018-06-01T06:34:48.921Z,20.90
2018-06-01T06:37:16.667Z,20.77
2018-06-01T06:39:43.915Z,20.60
2018-06-01T06:42:10.900Z,19.53
2018-06-01T06:44:37.918Z,21.07
2018-06-01T06:47:04.947Z,20.23
2018-06-01T06:49:31.915Z,19.70
2018-06-01T06:51:58.964Z,20.90
2018-06-01T06:54:26.711Z,21.27
2018-06-01T06:56:53.723Z,19.07
2018-06-01T06:59:20.723Z,20.33
2018-06-01T07:01:48.480Z,20.20
2018-06-01T07:04:15.502Z,21.10
2018-06-01T07:06:42.516Z,20.20
2018-06-01T07:09:09.617Z,21.77
2018-06-01T07:11:36.620Z,20.67
2018-06-01T07:14:03.812Z,21.33
2018-06-01T07:16:30.833Z,21.20
2018-06-01T07:18:57.828Z,21.50
2018-06-01T07:21:24.841Z,20.70
2018-06-01T07:23:51.858Z,21.53
2018-06-01T07:26:18.879Z,20.30
2018-06-01T07:28:45.899Z,24.23
2018-06-01T07:31:12.871Z,21.57
2018-06-01T07:33:40.616Z,20.10
2018-06-01T07:36:07.596Z,22.33
2018-06-01T07:38:34.603Z,21.80
2018-06-01T07:41:01.615Z,20.60
2018-06-01T07:43:28.636Z,21.27
2018-06-01T07:45:55.648Z,20.90
2018-06-01T07:48:22.639Z,21.97
2018-06-01T07:50:49.676Z,21.00
2018-06-01T07:53:16.663Z,21.80
2018-06-01T07:55:43.639Z,22.67
2018-06-01T07:58:10.617Z,20.80
2018-06-01T08:00:37.621Z,20.93
2018-06-01T08:03:04.635Z,21.23
2018-06-01T08:05:31.655Z,22.20
2018-06-01T08:07:58.644Z,21.80
2018-06-01T08:10:25.686Z,20.50
2018-06-01T08:12:52.696Z,20.27
2018-06-01T08:15:19.712Z,20.97
2018-06-01T08:17:46.721Z,19.90
2018-06-01T08:20:15.044Z,20.60
2018-06-01T08:22:42.803Z,20.50
2018-06-01T08:25:10.539Z,20.37
2018-06-01T08:27:37.565Z,21.20
2018-06-01T08:30:04.560Z,19.10
2018-06-01T08:32:31.629Z,21.10
2018-06-01T08:34:58.628Z,21.20
2018-06-01T08:37:26.397Z,19.03
2018-06-01T08:39:53.498Z,20.20
2018-06-01T08:42:20.508Z,23.57
2018-06-01T08:44:48.274Z,21.83
2018-06-01T08:47:16.190Z,21.67
2018-06-01T08:49:43.224Z,21.63
2018-06-01T08:52:10.287Z,22.47
2018-06-01T08:54:37.263Z,21.63
2018-06-01T08:57:05.051Z,19.57
2018-06-01T08:59:32.067Z,22.40
2018-06-01T09:01:59.097Z,20.83
2018-06-01T09:04:28.325Z,19.30
2018-06-01T09:06:55.336Z,18.70
2018-06-01T09:09:22.340Z,37.60
2018-06-01T09:11:50.095Z,24.73
2018-06-01T09:14:17.109Z,20.00
2018-06-01T09:16:44.184Z,18.73
2018-06-01T09:19:11.441Z,22.30
2018-06-01T09:21:38.488Z,17.50
2018-06-01T09:24:05.630Z,18.30
2018-06-01T09:26:32.744Z,18.63
2018-06-01T09:28:59.775Z,20.13
2018-06-01T09:31:26.772Z,18.23
2018-06-01T09:33:54.305Z,19.80
2018-06-01T09:36:22.211Z,20.00
2018-06-01T09:38:49.205Z,18.43
2018-06-01T09:41:16.195Z,15.93
2018-06-01T09:43:43.228Z,14.40
2018-06-01T09:46:10.274Z,18.43
2018-06-01T09:48:37.294Z,17.10
2018-06-01T09:51:04.307Z,17.60
2018-06-01T09:53:31.300Z,17.37
2018-06-01T09:55:58.377Z,16.63
2018-06-01T09:58:26.127Z,17.63
2018-06-01T10:00:59.365Z,17.33
2018-06-01T10:03:26.523Z,17.10
2018-06-01T10:05:54.264Z,16.70
2018-06-01T10:08:21.268Z,17.20
2018-06-01T10:10:48.291Z,17.60
2018-06-01T10:13:15.292Z,21.90
2018-06-01T10:15:43.057Z,18.33
2018-06-01T10:18:10.103Z,18.40
2018-06-01T10:20:37.859Z,18.10
2018-06-01T10:23:05.613Z,17.00
2018-06-01T10:25:32.615Z,16.17
2018-06-01T10:27:59.628Z,15.20
2018-06-01T10:30:26.642Z,16.33
2018-06-01T10:32:53.705Z,15.33
2018-06-01T10:35:20.692Z,14.97
2018-06-01T10:37:47.681Z,15.80
2018-06-01T10:40:14.695Z,17.47
2018-06-01T10:42:41.756Z,14.37
2018-06-01T10:45:09.036Z,14.67
2018-06-01T10:47:36.184Z,16.20
2018-06-01T10:50:03.232Z,16.27
2018-06-01T10:52:30.232Z,14.27
2018-06-01T10:54:57.943Z,16.30
2018-06-01T10:57:24.933Z,15.73
2018-06-01T10:59:51.964Z,14.87
2018-06-01T11:02:18.994Z,15.03
2018-06-01T11:04:46.008Z,14.03
2018-06-01T11:07:13.020Z,13.60
2018-06-01T11:09:40.019Z,14.03
2018-06-01T11:12:07.032Z,14.73
2018-06-01T11:14:34.086Z,16.37
2018-06-01T11:17:01.117Z,13.87
2018-06-01T11:19:28.427Z,15.47
2018-06-01T11:21:55.503Z,14.00
2018-06-01T11:24:22.559Z,15.40
2018-06-01T11:26:49.732Z,14.73
2018-06-01T11:29:16.822Z,13.90
2018-06-01T11:31:44.135Z,14.60
2018-06-01T11:34:11.168Z,14.43
2018-06-01T11:36:38.447Z,12.87
2018-06-01T11:39:05.568Z,11.60
2018-06-01T11:41:32.740Z,12.10
2018-06-01T11:44:00.661Z,11.73
2018-06-01T11:46:27.853Z,11.27
2018-06-01T11:48:54.926Z,9.10
2018-06-01T11:51:21.987Z,10.40
2018-06-01T11:53:48.982Z,9.87
2018-06-01T11:56:16.438Z,8.13
2018-06-01T11:58:43.485Z,8.23
2018-06-01T12:01:10.796Z,7.07
2018-06-01T12:03:38.014Z,7.13
2018-06-01T12:06:05.162Z,5.60
2018-06-01T12:08:32.403Z,6.30
2018-06-01T12:11:00.229Z,6.33
2018-06-01T12:13:27.281Z,6.40
2018-06-01T12:15:55.027Z,6.83
2018-06-01T12:18:22.817Z,6.40
2018-06-01T12:20:49.853Z,7.10
2018-06-01T12:23:17.651Z,6.87
2018-06-01T12:25:44.805Z,7.13
2018-06-01T12:28:11.928Z,6.67
2018-06-01T12:30:39.713Z,7.30
2018-06-01T12:33:06.932Z,6.70
2018-06-01T12:35:34.112Z,7.10
2018-06-01T12:38:01.141Z,6.70
2018-06-01T12:40:28.120Z,7.27
2018-06-01T12:42:55.183Z,6.90
2018-06-01T12:45:22.218Z,6.43
2018-06-01T12:47:49.208Z,7.00
2018-06-01T12:50:16.989Z,8.90
2018-06-01T12:52:44.719Z,9.30
2018-06-01T12:55:11.971Z,9.33
2018-06-01T12:57:38.970Z,9.20
2018-06-01T13:00:06.016Z,9.10
2018-06-01T13:02:33.011Z,9.50
2018-06-01T13:05:00.758Z,11.07
2018-06-01T13:07:27.747Z,9.93
2018-06-01T13:09:54.792Z,10.10
2018-06-01T13:12:22.558Z,9.77
2018-06-01T13:14:50.314Z,8.97
2018-06-01T13:17:17.296Z,10.27
2018-06-01T13:19:44.374Z,8.13
2018-06-01T13:22:11.376Z,9.70
2018-06-01T13:24:39.092Z,11.73
2018-06-01T13:27:06.124Z,11.03
2018-06-01T13:29:33.105Z,10.03
2018-06-01T13:32:00.348Z,11.70
2018-06-01T13:34:27.344Z,10.70
2018-06-01T13:36:54.346Z,11.00
2018-06-01T13:39:21.367Z,11.30
2018-06-01T13:41:48.377Z,10.97
2018-06-01T13:44:16.712Z,10.53
2018-06-01T13:46:43.825Z,10.47
2018-06-01T13:49:10.864Z,12.80
2018-06-01T13:51:37.851Z,11.00
2018-06-01T13:54:04.934Z,11.50
2018-06-01T13:56:31.926Z,12.40
2018-06-01T13:58:58.931Z,11.10
2018-06-01T14:01:26.667Z,11.10
2018-06-01T14:03:53.676Z,10.60
2018-06-01T14:06:20.717Z,10.47
2018-06-01T14:08:47.791Z,12.10
2018-06-01T14:11:14.768Z,11.37
2018-06-01T14:13:41.789Z,10.70
2018-06-01T14:16:08.802Z,12.27
2018-06-01T14:18:35.780Z,12.50
2018-06-01T14:21:02.793Z,11.53
2018-06-01T14:23:29.805Z,11.40
2018-06-01T14:25:56.880Z,11.77
2018-06-01T14:28:24.229Z,11.10
2018-06-01T14:30:51.242Z,10.40
2018-06-01T14:33:19.017Z,12.27
2018-06-01T14:35:46.752Z,10.50
2018-06-01T14:38:13.772Z,11.07
2018-06-01T14:40:40.825Z,12.17
2018-06-01T14:43:08.136Z,12.00
2018-06-01T14:45:35.214Z,12.93
2018-06-01T14:48:02.217Z,10.83
2018-06-01T14:50:30.011Z,10.77
2018-06-01T14:52:57.104Z,11.10
2018-06-01T14:58:14.561Z,11.73
2018-06-01T15:00:41.962Z,12.63
2018-06-01T15:03:09.309Z,11.30
2018-06-01T15:05:36.446Z,13.43
2018-06-01T15:08:04.273Z,13.60
2018-06-01T15:10:31.340Z,12.63
2018-06-01T15:12:58.591Z,12.03
2018-06-01T15:15:26.392Z,12.07
2018-06-01T15:17:53.423Z,11.97
2018-06-01T15:20:20.469Z,21.73
2018-06-01T15:22:48.411Z,14.20
2018-06-01T15:25:16.403Z,18.57
2018-06-01T15:27:43.604Z,12.10
2018-06-01T15:30:10.701Z,14.83
2018-06-01T15:32:37.897Z,12.77
2018-06-01T15:35:05.057Z,11.80
2018-06-01T15:37:32.191Z,13.57
2018-06-01T15:39:59.221Z,13.20
2018-06-01T15:42:26.310Z,14.93
2018-06-01T15:44:53.480Z,14.50
2018-06-01T15:47:20.500Z,13.30
2018-06-01T15:49:47.853Z,11.83
2018-06-01T15:52:15.263Z,11.93
2018-06-01T15:54:43.230Z,12.40
2018-06-01T15:57:10.241Z,14.40
2018-06-01T15:59:37.256Z,18.83
2018-06-01T16:02:04.364Z,16.67
2018-06-01T16:04:32.099Z,14.17
2018-06-01T16:06:59.104Z,13.10
2018-06-01T16:09:26.149Z,13.80
2018-06-01T16:11:53.143Z,13.80
2018-06-01T16:14:20.179Z,12.03
2018-06-01T16:16:47.225Z,13.87
2018-06-01T16:19:14.204Z,11.53
2018-06-01T16:21:41.975Z,11.20
2018-06-01T16:24:09.712Z,13.07
2018-06-01T16:26:37.484Z,12.83
2018-06-01T16:29:04.472Z,13.00
2018-06-01T16:31:31.484Z,30.63
2018-06-01T16:33:58.477Z,11.73
2018-06-01T16:36:25.479Z,10.80
2018-06-01T16:38:52.488Z,10.70
2018-06-01T16:41:19.488Z,10.10
2018-06-01T16:43:46.491Z,10.83
2018-06-01T16:46:13.474Z,12.10
2018-06-01T16:48:40.529Z,27.57
2018-06-01T16:51:07.548Z,23.07
2018-06-01T16:53:34.533Z,13.03
2018-06-01T16:56:01.519Z,12.20
2018-06-01T16:58:28.511Z,13.07
2018-06-01T17:00:55.539Z,12.20
2018-06-01T17:03:22.540Z,16.50
2018-06-01T17:05:49.557Z,14.40
2018-06-01T17:08:16.556Z,15.63
2018-06-01T17:10:43.636Z,13.30
2018-06-01T17:13:11.385Z,14.67
2018-06-01T17:15:38.440Z,13.67
2018-06-01T17:18:05.428Z,13.67
2018-06-01T17:20:32.440Z,12.97
2018-06-01T17:23:00.200Z,13.13
2018-06-01T17:25:27.220Z,13.37
2018-06-01T17:27:54.215Z,13.53
2018-06-01T17:30:21.217Z,12.70
2018-06-01T17:32:48.256Z,13.50
2018-06-01T17:35:15.288Z,13.70
2018-06-01T17:37:42.285Z,13.00
2018-06-01T17:40:10.011Z,12.70
2018-06-01T17:42:36.993Z,12.47
2018-06-01T17:45:04.790Z,11.63
2018-06-01T17:47:31.788Z,13.20
2018-06-01T17:49:58.879Z,11.07
2018-06-01T17:52:25.876Z,11.60
2018-06-01T17:54:52.857Z,12.23
2018-06-01T17:57:19.871Z,12.60
2018-06-01T17:59:46.850Z,13.10
2018-06-01T18:02:14.630Z,12.10
2018-06-01T18:04:42.340Z,10.97
2018-06-01T18:07:09.340Z,12.40
2018-06-01T18:09:36.331Z,11.93
2018-06-01T18:12:03.331Z,11.27
2018-06-01T18:14:30.434Z,13.10
2018-06-01T18:16:57.440Z,12.10
2018-06-01T18:19:24.440Z,12.77
2018-06-01T18:21:52.187Z,10.83
2018-06-01T18:24:19.159Z,10.97
2018-06-01T18:26:46.252Z,10.90
2018-06-01T18:29:13.287Z,11.83
2018-06-01T18:31:40.326Z,10.50
2018-06-01T18:34:08.035Z,9.73
2018-06-01T18:36:35.057Z,11.60
2018-06-01T18:39:02.125Z,10.37
2018-06-01T18:41:29.124Z,10.23
2018-06-01T18:43:56.169Z,9.60
2018-06-01T18:46:23.204Z,9.03
2018-06-01T18:48:50.928Z,9.97
2018-06-01T18:51:18.963Z,11.07
2018-06-01T18:53:45.994Z,9.73
2018-06-01T18:56:13.040Z,8.40
2018-06-01T18:58:40.767Z,10.30
2018-06-01T19:01:07.771Z,10.50
2018-06-01T19:03:34.821Z,10.33
2018-06-01T19:06:02.751Z,11.27
2018-06-01T19:08:30.500Z,11.00
2018-06-01T19:10:57.508Z,10.87
2018-06-01T19:13:24.515Z,9.80
2018-06-01T19:15:51.552Z,9.30
2018-06-01T19:18:19.317Z,9.80
2018-06-01T19:20:47.068Z,9.80
2018-06-01T19:23:14.057Z,9.30
2018-06-01T19:25:41.072Z,10.20
2018-06-01T19:28:08.830Z,9.63
2018-06-01T19:30:36.589Z,9.53
2018-06-01T19:33:03.605Z,11.00
2018-06-01T19:35:30.655Z,10.63
2018-06-01T19:37:58.233Z,11.77
2018-06-01T19:40:25.607Z,10.77
2018-06-01T19:42:52.827Z,10.60
2018-06-01T19:45:19.883Z,10.70
2018-06-01T19:47:46.886Z,10.70
2018-06-01T19:50:13.895Z,10.80
2018-06-01T19:52:41.652Z,10.97
2018-06-01T19:55:08.656Z,10.40
2018-06-01T19:57:35.656Z,12.53
2018-06-01T20:00:02.705Z,12.27
2018-06-01T20:02:29.732Z,11.93
2018-06-01T20:04:56.787Z,12.67
2018-06-01T20:07:23.785Z,12.43
2018-06-01T20:09:50.807Z,12.17
2018-06-01T20:12:18.812Z,12.97
2018-06-01T20:14:45.816Z,13.60
2018-06-01T20:17:12.808Z,13.47
2018-06-01T20:19:39.816Z,13.90
2018-06-01T20:22:07.617Z,12.83
2018-06-01T20:24:34.615Z,11.30
2018-06-01T20:27:02.437Z,11.17
2018-06-01T20:29:29.431Z,10.30
2018-06-01T20:31:57.179Z,10.43
2018-06-01T20:34:24.920Z,10.30
2018-06-01T20:36:51.912Z,11.73
2018-06-01T20:39:19.183Z,12.53
2018-06-01T20:41:46.184Z,11.87
2018-06-01T20:44:13.963Z,12.00
2018-06-01T20:46:42.644Z,11.60
2018-06-01T20:49:10.452Z,15.47
2018-06-01T20:51:37.460Z,13.07
2018-06-01T20:54:04.501Z,11.40
2018-06-01T20:56:31.524Z,11.97
2018-06-01T20:58:58.486Z,12.00
2018-06-01T21:01:25.481Z,13.73
2018-06-01T21:03:52.528Z,11.57
2018-06-01T21:06:19.524Z,12.10
2018-06-01T21:08:46.976Z,10.77
2018-06-01T21:11:14.032Z,11.40
2018-06-01T21:13:41.813Z,10.23
2018-06-01T21:16:09.555Z,10.10
2018-06-01T21:18:37.275Z,9.10
2018-06-01T21:21:04.324Z,10.13
2018-06-01T21:23:31.313Z,10.70
2018-06-01T21:25:58.355Z,11.10
2018-06-01T21:28:25.336Z,10.90
2018-06-01T21:30:52.347Z,10.70
2018-06-01T21:33:19.365Z,10.13
2018-06-01T21:35:46.377Z,8.93
2018-06-01T21:38:13.388Z,10.53
2018-06-01T21:40:40.414Z,11.60
2018-06-01T21:43:07.416Z,12.90
2018-06-01T21:45:35.161Z,13.50
2018-06-01T21:48:02.957Z,10.00
2018-06-01T21:50:30.720Z,10.47
2018-06-01T21:52:57.720Z,10.60
2018-06-01T21:55:24.752Z,11.30
2018-06-01T21:57:51.727Z,11.30
2018-06-01T22:00:18.758Z,10.27
2018-06-01T22:02:45.805Z,10.43
2018-06-01T22:05:12.826Z,10.40
2018-06-01T22:07:39.807Z,9.40
2018-06-01T22:10:06.856Z,9.30
2018-06-01T22:12:33.852Z,10.80
2018-06-01T22:15:00.883Z,11.60
2018-06-01T22:17:28.590Z,11.40
2018-06-01T22:19:55.582Z,10.03
2018-06-01T22:22:23.311Z,10.50
2018-06-01T22:24:50.315Z,11.23
2018-06-01T22:27:17.298Z,10.27
2018-06-01T22:29:44.292Z,9.63
2018-06-01T22:32:12.004Z,11.33
2018-06-01T22:34:39.002Z,11.77
2018-06-01T22:37:06.004Z,10.57
2018-06-01T22:39:32.995Z,10.20
2018-06-01T22:41:59.989Z,11.47
2018-06-01T22:44:26.983Z,11.00
2018-06-01T22:46:54.728Z,10.20
2018-06-01T22:49:22.464Z,11.07
2018-06-01T22:51:49.454Z,9.53
2018-06-01T22:54:17.194Z,10.57
2018-06-01T22:56:44.223Z,10.80
2018-06-01T22:59:11.229Z,11.33
2018-06-01T23:01:38.208Z,9.40
2018-06-01T23:04:05.397Z,10.70
2018-06-01T23:06:32.584Z,11.13
2018-06-01T23:08:59.597Z,10.07
2018-06-01T23:11:27.309Z,11.80
2018-06-01T23:13:54.286Z,11.00
2018-06-01T23:16:21.305Z,11.23
2018-06-01T23:18:48.288Z,9.00
2018-06-01T23:21:15.305Z,9.90
2018-06-01T23:23:42.277Z,10.60
2018-06-01T23:26:09.287Z,9.97
2018-06-01T23:28:36.256Z,10.87
2018-06-01T23:31:03.259Z,9.47
2018-06-01T23:33:30.294Z,10.30
2018-06-01T23:35:58.040Z,9.83
2018-06-01T23:38:25.800Z,10.80
2018-06-01T23:40:53.548Z,9.07
2018-06-01T23:43:20.541Z,9.47
2018-06-01T23:45:47.558Z,8.70
2018-06-01T23:48:15.288Z,8.50
2018-06-01T23:50:42.258Z,9.53
2018-06-01T23:53:09.252Z,9.33
2018-06-01T23:55:36.276Z,9.40
2018-06-01T23:58:03.281Z,10.87
